createdAt,value
2022-12-08T00:01:12.108Z,2.83
2022-12-08T00:03:39.249Z,2.77
2022-12-08T00:06:25.777Z,2.77
2022-12-08T00:09:11.171Z,2.89
2022-12-08T00:11:39.054Z,2.86
2022-12-08T00:14:05.849Z,2.76
2022-12-08T00:16:32.485Z,2.72
2022-12-08T00:18:59.094Z,2.82
2022-12-08T00:21:25.699Z,2.72
2022-12-08T00:23:55.270Z,2.72
2022-12-08T00:26:22.037Z,2.79
2022-12-08T00:28:48.790Z,2.75
2022-12-08T00:31:16.848Z,2.91
2022-12-08T00:33:43.433Z,2.70
2022-12-08T00:36:13.148Z,2.37
2022-12-08T00:38:40.595Z,2.39
2022-12-08T00:41:12.223Z,2.53
2022-12-08T00:43:38.854Z,2.18
2022-12-08T00:46:05.695Z,2.52
2022-12-08T00:48:32.320Z,2.57
2022-12-08T00:50:59.022Z,2.55
2022-12-08T00:53:25.628Z,2.52
2022-12-08T00:55:52.167Z,2.23
2022-12-08T00:58:18.799Z,2.73
2022-12-08T01:00:45.449Z,2.55
2022-12-08T01:03:13.324Z,2.63
2022-12-08T01:05:39.984Z,2.69
2022-12-08T01:08:07.759Z,2.55
2022-12-08T01:10:39.608Z,2.38
2022-12-08T01:13:06.331Z,2.53
2022-12-08T01:15:32.944Z,2.60
2022-12-08T01:17:59.537Z,2.61
2022-12-08T01:20:26.146Z,2.21
2022-12-08T01:22:52.804Z,1.66
2022-12-08T01:25:19.406Z,2.46
2022-12-08T01:27:45.989Z,2.53
2022-12-08T01:30:13.371Z,2.32
2022-12-08T01:32:40.000Z,2.40
2022-12-08T01:35:06.783Z,2.27
2022-12-08T01:37:33.573Z,2.25
2022-12-08T01:40:00.173Z,2.30
2022-12-08T01:42:26.744Z,1.70
2022-12-08T01:44:55.123Z,2.21
2022-12-08T01:47:24.780Z,1.81
2022-12-08T01:49:51.501Z,2.34
2022-12-08T01:52:29.226Z,2.32
2022-12-08T01:55:02.325Z,2.39
2022-12-08T01:57:37.058Z,2.34
2022-12-08T02:00:10.026Z,2.24
2022-12-08T02:02:52.946Z,1.90
2022-12-08T02:05:22.784Z,2.40
2022-12-08T02:07:49.863Z,2.33
2022-12-08T02:10:19.318Z,2.29
2022-12-08T02:12:47.636Z,2.36
2022-12-08T02:15:15.134Z,2.37
2022-12-08T02:18:23.146Z,2.35
2022-12-08T02:20:49.681Z,2.25
2022-12-08T02:23:42.511Z,2.27
2022-12-08T02:26:27.046Z,2.37
2022-12-08T02:28:56.613Z,2.18
2022-12-08T02:31:41.736Z,2.20
2022-12-08T02:34:11.180Z,2.25
2022-12-08T02:36:59.652Z,2.25
2022-12-08T02:39:33.367Z,2.38
2022-12-08T02:42:16.068Z,1.87
2022-12-08T02:44:56.462Z,2.08
2022-12-08T02:47:25.085Z,1.98
2022-12-08T02:49:51.642Z,1.88
2022-12-08T02:52:18.165Z,2.05
2022-12-08T02:54:56.954Z,2.10
2022-12-08T02:57:51.576Z,2.16
2022-12-08T03:00:24.545Z,2.11
2022-12-08T03:03:16.203Z,2.25
2022-12-08T03:06:23.071Z,2.33
2022-12-08T03:09:02.645Z,1.94
2022-12-08T03:11:47.766Z,2.46
2022-12-08T03:14:17.466Z,2.16
2022-12-08T03:16:49.561Z,2.75
2022-12-08T03:19:20.084Z,2.65
2022-12-08T03:22:02.957Z,2.54
2022-12-08T03:24:36.763Z,2.38
2022-12-08T03:27:21.854Z,3.05
2022-12-08T03:29:51.303Z,3.06
2022-12-08T03:32:34.570Z,2.52
2022-12-08T03:35:05.376Z,2.84
2022-12-08T03:37:35.685Z,3.07
2022-12-08T03:40:04.411Z,2.34
2022-12-08T03:42:31.158Z,3.34
2022-12-08T03:44:57.734Z,3.51
2022-12-08T03:47:24.305Z,3.53
2022-12-08T03:49:50.894Z,3.66
2022-12-08T03:52:17.539Z,3.68
2022-12-08T03:54:44.118Z,3.76
2022-12-08T03:57:10.677Z,3.95
2022-12-08T03:59:37.304Z,3.45
2022-12-08T04:02:04.018Z,3.90
2022-12-08T04:04:30.792Z,3.99
2022-12-08T04:06:57.379Z,4.07
2022-12-08T04:09:24.003Z,4.03
2022-12-08T04:11:50.684Z,3.87
2022-12-08T04:14:17.253Z,3.91
2022-12-08T04:16:43.866Z,3.06
2022-12-08T04:19:10.412Z,3.78
2022-12-08T04:21:36.938Z,3.77
2022-12-08T04:24:03.717Z,3.70
2022-12-08T04:26:30.302Z,3.67
2022-12-08T04:28:56.898Z,3.69
2022-12-08T04:31:23.600Z,3.57
2022-12-08T04:33:50.187Z,3.64
2022-12-08T04:36:16.777Z,3.57
2022-12-08T04:38:43.310Z,3.39
2022-12-08T04:41:10.208Z,3.89
2022-12-08T04:43:37.205Z,3.47
2022-12-08T04:46:07.326Z,3.81
2022-12-08T04:48:34.317Z,1.87
2022-12-08T04:51:00.911Z,4.15
2022-12-08T04:53:27.469Z,4.24
2022-12-08T04:55:54.049Z,4.13
2022-12-08T04:58:21.417Z,3.89
2022-12-08T05:00:48.305Z,4.37
2022-12-08T05:03:15.867Z,4.48
2022-12-08T05:05:43.553Z,4.18
2022-12-08T05:08:10.970Z,4.47
2022-12-08T05:10:37.841Z,4.51
2022-12-08T05:13:04.407Z,3.65
2022-12-08T05:15:31.023Z,4.69
2022-12-08T05:17:57.599Z,4.55
2022-12-08T05:20:24.133Z,4.71
2022-12-08T05:22:50.722Z,4.89
2022-12-08T05:25:17.448Z,4.98
2022-12-08T05:27:44.045Z,5.05
2022-12-08T05:30:10.859Z,4.73
2022-12-08T05:32:37.449Z,5.02
2022-12-08T05:35:04.162Z,5.04
2022-12-08T05:37:31.019Z,4.98
2022-12-08T05:39:57.571Z,4.96
2022-12-08T05:42:25.171Z,4.98
2022-12-08T05:44:52.364Z,5.03
2022-12-08T05:47:18.997Z,5.16
2022-12-08T05:49:45.562Z,5.18
2022-12-08T05:52:12.141Z,5.20
2022-12-08T05:54:38.779Z,5.09
2022-12-08T05:57:05.365Z,5.06
2022-12-08T05:59:31.941Z,4.79
2022-12-08T06:01:58.578Z,4.73
2022-12-08T06:04:25.310Z,4.58
2022-12-08T06:06:52.376Z,4.65
2022-12-08T06:09:18.988Z,4.64
2022-12-08T06:11:47.157Z,4.15
2022-12-08T06:14:13.771Z,4.53
2022-12-08T06:16:40.521Z,4.54
2022-12-08T06:19:07.161Z,4.62
2022-12-08T06:21:33.788Z,4.65
2022-12-08T06:24:00.343Z,4.61
2022-12-08T06:26:26.998Z,4.57
2022-12-08T06:28:53.671Z,4.79
2022-12-08T06:31:23.048Z,4.93
2022-12-08T06:33:50.429Z,5.00
2022-12-08T06:36:19.417Z,5.27
2022-12-08T06:38:46.254Z,5.32
2022-12-08T06:41:13.899Z,5.41
2022-12-08T06:43:41.350Z,5.62
2022-12-08T06:46:11.566Z,5.77
2022-12-08T06:48:38.203Z,5.65
2022-12-08T06:51:10.918Z,5.57
2022-12-08T06:53:38.561Z,6.14
2022-12-08T06:56:06.332Z,6.28
2022-12-08T06:58:33.212Z,6.34
2022-12-08T07:01:08.540Z,5.68
2022-12-08T07:03:36.456Z,6.56
2022-12-08T07:06:04.319Z,6.66
2022-12-08T07:08:32.049Z,6.66
2022-12-08T07:10:58.913Z,6.66
2022-12-08T07:13:25.578Z,6.76
2022-12-08T07:15:52.241Z,6.81
2022-12-08T07:18:18.861Z,6.38
2022-12-08T07:20:45.513Z,6.80
2022-12-08T07:23:12.248Z,7.15
2022-12-08T07:25:38.949Z,7.31
2022-12-08T07:28:10.254Z,7.33
2022-12-08T07:30:37.091Z,7.46
2022-12-08T07:33:05.792Z,7.33
2022-12-08T07:35:34.844Z,7.14
2022-12-08T07:38:02.380Z,7.57
2022-12-08T07:40:29.164Z,6.91
2022-12-08T07:42:55.785Z,6.75
2022-12-08T07:45:24.670Z,6.86
2022-12-08T07:47:56.457Z,6.77
2022-12-08T07:50:23.348Z,7.07
2022-12-08T07:52:49.952Z,7.03
2022-12-08T07:55:16.562Z,6.95
2022-12-08T07:57:43.538Z,6.86
2022-12-08T08:00:10.942Z,7.02
2022-12-08T08:02:37.589Z,7.24
2022-12-08T08:05:04.774Z,7.34
2022-12-08T08:07:32.356Z,7.35
2022-12-08T08:09:59.022Z,7.56
2022-12-08T08:12:33.348Z,7.61
2022-12-08T08:15:01.810Z,6.77
2022-12-08T08:17:29.891Z,5.47
2022-12-08T08:19:56.942Z,7.32
2022-12-08T08:22:25.386Z,7.42
2022-12-08T08:24:52.149Z,7.62
2022-12-08T08:27:19.025Z,7.57
2022-12-08T08:29:45.686Z,7.12
2022-12-08T08:32:12.384Z,7.72
2022-12-08T08:34:39.347Z,7.80
2022-12-08T08:37:06.271Z,7.42
2022-12-08T08:39:33.050Z,7.62
2022-12-08T08:41:59.699Z,7.68
2022-12-08T08:44:26.382Z,7.70
2022-12-08T08:46:53.274Z,5.78
2022-12-08T08:49:20.366Z,7.89
2022-12-08T08:51:47.364Z,8.02
2022-12-08T08:54:14.134Z,8.07
2022-12-08T08:56:40.792Z,8.24
2022-12-08T08:59:07.724Z,8.44
2022-12-08T09:01:34.394Z,8.08
2022-12-08T09:04:01.637Z,8.59
2022-12-08T09:06:28.491Z,8.28
2022-12-08T09:08:55.371Z,8.45
2022-12-08T09:11:23.542Z,8.31
2022-12-08T09:13:51.822Z,8.45
2022-12-08T09:16:19.391Z,7.85
2022-12-08T09:18:46.342Z,7.56
2022-12-08T09:21:16.624Z,8.21
2022-12-08T09:23:43.536Z,8.47
2022-12-08T09:26:10.621Z,8.53
2022-12-08T09:28:37.864Z,8.62
2022-12-08T09:31:04.883Z,8.25
2022-12-08T09:33:31.755Z,8.41
2022-12-08T09:36:03.127Z,8.67
2022-12-08T09:38:29.847Z,8.77
2022-12-08T09:40:56.746Z,8.88
2022-12-08T09:43:51.697Z,8.88
2022-12-08T09:46:20.389Z,8.67
2022-12-08T09:48:56.039Z,9.05
2022-12-08T09:51:30.508Z,6.96
2022-12-08T09:54:18.376Z,8.36
2022-12-08T09:56:45.171Z,9.18
2022-12-08T09:59:22.894Z,9.33
2022-12-08T10:01:50.104Z,9.16
2022-12-08T10:04:22.328Z,9.44
2022-12-08T10:06:58.067Z,9.57
2022-12-08T10:09:43.582Z,9.54
2022-12-08T10:12:26.157Z,9.08
2022-12-08T10:14:52.639Z,9.15
2022-12-08T10:17:23.994Z,9.25
2022-12-08T10:19:57.740Z,9.45
2022-12-08T10:22:27.037Z,9.01
2022-12-08T10:25:19.124Z,9.35
2022-12-08T10:27:49.866Z,9.01
2022-12-08T10:30:19.047Z,9.29
2022-12-08T10:32:49.227Z,9.34
2022-12-08T10:35:18.272Z,9.32
2022-12-08T10:38:02.316Z,9.37
2022-12-08T10:40:40.581Z,9.34
2022-12-08T10:43:17.614Z,9.47
2022-12-08T10:45:45.079Z,9.46
2022-12-08T10:48:17.021Z,9.25
2022-12-08T10:50:54.488Z,9.43
2022-12-08T10:53:30.200Z,9.56
2022-12-08T10:56:02.562Z,9.38
2022-12-08T10:58:41.120Z,9.46
2022-12-08T11:01:18.914Z,9.38
2022-12-08T11:03:58.137Z,8.88
2022-12-08T11:06:32.266Z,9.16
2022-12-08T11:09:01.812Z,8.90
2022-12-08T11:11:55.365Z,8.88
2022-12-08T11:14:37.057Z,9.04
2022-12-08T11:17:13.671Z,9.16
2022-12-08T11:20:03.621Z,9.23
2022-12-08T11:22:30.673Z,8.93
2022-12-08T11:25:00.355Z,8.88
2022-12-08T11:27:27.036Z,8.64
2022-12-08T11:29:55.218Z,8.46
2022-12-08T11:32:22.526Z,6.59
2022-12-08T11:34:54.777Z,8.49
2022-12-08T11:37:34.507Z,8.84
2022-12-08T11:40:07.278Z,8.05
2022-12-08T11:42:53.692Z,8.17
2022-12-08T11:45:26.678Z,8.91
2022-12-08T11:48:08.676Z,9.09
2022-12-08T11:51:00.082Z,9.18
2022-12-08T11:53:34.162Z,8.79
2022-12-08T11:56:10.258Z,8.90
2022-12-08T11:58:46.192Z,7.38
2022-12-08T12:01:20.489Z,9.39
2022-12-08T12:04:09.651Z,9.45
2022-12-08T12:07:14.554Z,9.37
2022-12-08T12:10:08.488Z,9.33
2022-12-08T12:12:47.416Z,9.26
2022-12-08T12:15:34.300Z,9.23
2022-12-08T12:18:16.475Z,9.02
2022-12-08T12:20:49.813Z,9.04
2022-12-08T12:23:35.222Z,8.91
2022-12-08T12:26:05.544Z,8.92
2022-12-08T12:28:57.476Z,9.00
2022-12-08T12:31:38.563Z,8.64
2022-12-08T12:34:11.664Z,8.78
2022-12-08T12:36:51.765Z,8.93
2022-12-08T12:39:26.340Z,8.17
2022-12-08T12:42:01.564Z,7.79
2022-12-08T12:44:28.050Z,8.84
2022-12-08T12:46:59.152Z,8.73
2022-12-08T12:49:40.988Z,8.88
2022-12-08T12:52:10.540Z,8.87
2022-12-08T12:54:42.888Z,8.92
2022-12-08T12:57:09.757Z,8.90
2022-12-08T12:59:55.191Z,8.59
2022-12-08T13:02:33.724Z,8.66
2022-12-08T13:05:16.358Z,8.67
2022-12-08T13:08:03.527Z,8.70
2022-12-08T13:10:30.076Z,8.68
2022-12-08T13:13:05.709Z,8.51
2022-12-08T13:15:38.831Z,8.30
2022-12-08T13:18:07.586Z,7.68
2022-12-08T13:20:45.996Z,8.46
2022-12-08T13:23:37.309Z,8.45
2022-12-08T13:26:16.077Z,8.54
2022-12-08T13:29:20.160Z,8.57
2022-12-08T13:31:51.076Z,8.44
2022-12-08T13:34:41.303Z,8.06
2022-12-08T13:37:10.575Z,8.03
2022-12-08T13:39:40.165Z,8.15
2022-12-08T13:42:12.796Z,8.04
2022-12-08T13:45:21.293Z,8.09
2022-12-08T13:48:27.025Z,8.23
2022-12-08T13:57:26.931Z,8.25
2022-12-08T13:59:53.582Z,8.10
2022-12-08T14:02:47.799Z,8.21
2022-12-08T14:05:18.958Z,8.31
2022-12-08T14:08:10.139Z,8.29
2022-12-08T14:10:36.837Z,8.20
2022-12-08T14:13:12.382Z,7.97
2022-12-08T14:15:40.194Z,8.06
2022-12-08T14:18:23.741Z,8.11
2022-12-08T14:21:20.859Z,8.16
2022-12-08T14:23:48.103Z,7.81
2022-12-08T14:26:14.746Z,8.04
2022-12-08T14:28:44.951Z,8.09
2022-12-08T14:31:14.056Z,8.12
2022-12-08T14:33:40.899Z,8.28
2022-12-08T14:36:09.860Z,8.26
2022-12-08T14:38:36.501Z,7.91
2022-12-08T14:41:04.809Z,8.28
2022-12-08T14:43:32.619Z,8.02
2022-12-08T14:46:02.372Z,8.31
2022-12-08T14:48:34.836Z,8.34
2022-12-08T14:51:04.225Z,8.41
2022-12-08T14:53:40.348Z,8.08
2022-12-08T14:56:13.087Z,7.98
2022-12-08T14:58:39.828Z,8.35
2022-12-08T15:01:08.335Z,8.40
2022-12-08T15:03:35.037Z,7.72
2022-12-08T15:06:06.361Z,8.39
2022-12-08T15:08:34.853Z,8.45
2022-12-08T15:11:36.526Z,8.52
2022-12-08T15:14:03.261Z,8.43
2022-12-08T15:16:42.927Z,8.18
2022-12-08T15:19:28.411Z,8.45
2022-12-08T15:21:58.270Z,8.32
2022-12-08T15:24:29.642Z,8.33
2022-12-08T15:26:56.369Z,8.26
2022-12-08T15:29:25.482Z,8.37
2022-12-08T15:31:54.656Z,8.45
2022-12-08T15:34:21.894Z,8.48
2022-12-08T15:36:51.165Z,8.47
2022-12-08T15:39:37.507Z,8.59
2022-12-08T15:42:10.528Z,8.56
2022-12-08T15:44:37.103Z,8.48
2022-12-08T15:47:04.063Z,8.44
2022-12-08T15:49:30.863Z,8.55
2022-12-08T15:52:09.286Z,8.48
2022-12-08T15:54:38.045Z,8.66
2022-12-08T15:57:19.573Z,8.49
2022-12-08T15:59:52.373Z,8.66
2022-12-08T16:02:22.513Z,8.43
2022-12-08T16:07:38.263Z,8.51
2022-12-08T16:10:06.872Z,8.64
2022-12-08T16:16:01.017Z,8.58
2022-12-08T16:18:32.717Z,8.33
2022-12-08T16:23:46.131Z,8.59
2022-12-08T16:27:01.132Z,8.29
2022-12-08T16:29:06.950Z,8.33
2022-12-08T16:31:33.890Z,8.65
2022-12-08T16:34:00.665Z,8.61
2022-12-08T16:36:27.285Z,8.65
2022-12-08T16:38:53.922Z,8.80
2022-12-08T16:41:39.381Z,8.78
2022-12-08T16:44:06.706Z,8.17
2022-12-08T16:46:33.749Z,8.72
2022-12-08T16:49:00.381Z,8.70
2022-12-08T16:51:27.628Z,8.41
2022-12-08T16:53:56.882Z,8.76
2022-12-08T16:56:28.959Z,8.78
2022-12-08T16:58:58.723Z,8.54
2022-12-08T17:01:25.377Z,8.34
2022-12-08T17:04:14.756Z,8.67
2022-12-08T17:06:38.626Z,8.72
2022-12-08T17:09:05.440Z,8.53
2022-12-08T17:11:37.439Z,8.70
2022-12-08T17:14:09.264Z,8.65
2022-12-08T17:16:35.938Z,8.74
2022-12-08T17:19:02.629Z,8.75
2022-12-08T17:21:29.250Z,8.73
2022-12-08T17:23:55.965Z,8.46
2022-12-08T17:26:22.555Z,8.66
2022-12-08T17:29:00.602Z,8.50
2022-12-08T17:31:30.615Z,8.01
2022-12-08T17:34:02.331Z,8.60
2022-12-08T17:36:29.491Z,8.55
2022-12-08T17:38:58.333Z,8.48
2022-12-08T17:41:24.999Z,8.41
2022-12-08T17:43:51.710Z,8.47
2022-12-08T17:46:19.029Z,8.40
2022-12-08T17:48:45.710Z,8.53
2022-12-08T17:51:12.288Z,8.51
2022-12-08T17:53:40.828Z,8.57
2022-12-08T17:56:18.345Z,8.58
2022-12-08T17:58:46.616Z,8.61
2022-12-08T18:01:16.431Z,8.63
2022-12-08T18:03:43.119Z,8.61
2022-12-08T18:06:12.380Z,8.65
2022-12-08T18:08:40.115Z,8.72
2022-12-08T18:11:12.362Z,8.69
2022-12-08T18:13:39.008Z,8.64
2022-12-08T18:16:05.743Z,8.72
2022-12-08T18:18:32.319Z,8.55
2022-12-08T18:20:58.872Z,8.62
2022-12-08T18:23:25.418Z,8.64
2022-12-08T18:25:51.998Z,8.70
2022-12-08T18:28:18.595Z,8.72
2022-12-08T18:30:45.225Z,8.64
2022-12-08T18:33:11.844Z,8.68
2022-12-08T18:35:41.646Z,8.73
2022-12-08T18:38:08.227Z,8.63
2022-12-08T18:40:34.846Z,8.69
2022-12-08T18:43:01.468Z,8.72
2022-12-08T18:45:28.194Z,8.43
2022-12-08T18:47:55.008Z,8.68
2022-12-08T18:50:21.581Z,8.76
2022-12-08T18:52:48.329Z,7.73
2022-12-08T18:55:15.595Z,8.53
2022-12-08T18:57:43.331Z,8.31
2022-12-08T19:00:13.467Z,8.80
2022-12-08T19:02:41.048Z,8.70
2022-12-08T19:05:10.291Z,8.30
2022-12-08T19:07:37.315Z,8.65
2022-12-08T19:10:05.878Z,8.75
2022-12-08T19:12:32.749Z,8.77
2022-12-08T19:14:59.345Z,8.66
2022-12-08T19:17:26.044Z,8.72
2022-12-08T19:19:52.649Z,8.73
2022-12-08T19:22:19.187Z,8.79
2022-12-08T19:24:46.244Z,8.87
2022-12-08T19:27:12.789Z,8.36
2022-12-08T19:29:39.437Z,8.66
2022-12-08T19:32:06.164Z,8.71
2022-12-08T19:34:32.770Z,8.81
2022-12-08T19:36:59.348Z,8.87
2022-12-08T19:39:44.441Z,8.74
2022-12-08T19:42:38.602Z,8.89
2022-12-08T19:45:11.922Z,8.59
2022-12-08T19:47:39.410Z,8.73
2022-12-08T19:50:26.429Z,8.88
2022-12-08T19:52:53.258Z,8.90
2022-12-08T19:55:20.577Z,8.39
2022-12-08T19:57:47.187Z,8.93
2022-12-08T20:00:14.205Z,8.89
2022-12-08T20:02:40.906Z,8.86
2022-12-08T20:05:08.788Z,8.93
2022-12-08T20:07:35.474Z,8.84
2022-12-08T20:10:05.553Z,8.93
2022-12-08T20:12:32.403Z,8.87
2022-12-08T20:14:58.934Z,8.89
2022-12-08T20:17:25.598Z,8.56
2022-12-08T20:19:52.322Z,8.90
2022-12-08T20:22:18.891Z,9.00
2022-12-08T20:24:48.938Z,9.02
2022-12-08T20:27:18.877Z,8.86
2022-12-08T20:29:45.443Z,8.94
2022-12-08T20:32:12.190Z,9.01
2022-12-08T20:34:38.798Z,8.99
2022-12-08T20:37:05.506Z,9.00
2022-12-08T20:39:32.120Z,9.00
2022-12-08T20:42:00.121Z,8.86
2022-12-08T20:44:29.461Z,8.94
2022-12-08T20:46:56.472Z,8.53
2022-12-08T20:49:23.383Z,8.90
2022-12-08T20:51:50.163Z,8.93
2022-12-08T20:54:16.871Z,8.88
2022-12-08T20:56:48.060Z,8.41
2022-12-08T20:59:20.498Z,8.74
2022-12-08T21:01:47.299Z,8.85
2022-12-08T21:04:14.161Z,8.70
2022-12-08T21:06:40.980Z,8.81
2022-12-08T21:09:07.781Z,8.60
2022-12-08T21:11:35.857Z,8.91
2022-12-08T21:14:02.723Z,8.86
2022-12-08T21:16:29.475Z,8.69
2022-12-08T21:18:56.525Z,8.80
2022-12-08T21:21:23.260Z,8.36
2022-12-08T21:23:50.115Z,8.85
2022-12-08T21:26:20.518Z,8.85
2022-12-08T21:28:47.668Z,8.49
2022-12-08T21:31:17.207Z,8.78
2022-12-08T21:33:44.423Z,8.81
2022-12-08T21:36:14.046Z,8.56
2022-12-08T21:38:41.195Z,8.94
2022-12-08T21:41:11.396Z,8.94
2022-12-08T21:43:38.082Z,8.27
2022-12-08T21:46:05.938Z,8.80
2022-12-08T21:48:32.939Z,8.90
2022-12-08T21:51:06.121Z,8.96
2022-12-08T21:53:32.765Z,8.83
2022-12-08T21:55:59.484Z,8.80
2022-12-08T21:58:26.423Z,8.78
2022-12-08T22:00:53.352Z,8.77
2022-12-08T22:03:20.246Z,8.40
2022-12-08T22:05:47.027Z,8.31
2022-12-08T22:08:13.806Z,8.85
2022-12-08T22:10:40.694Z,8.75
2022-12-08T22:13:07.339Z,8.71
2022-12-08T22:15:34.212Z,8.68
2022-12-08T22:18:01.081Z,8.56
2022-12-08T22:20:27.815Z,8.44
2022-12-08T22:22:54.558Z,8.32
2022-12-08T22:25:21.215Z,8.79
2022-12-08T22:27:47.871Z,8.83
2022-12-08T22:30:14.576Z,8.84
2022-12-08T22:32:41.968Z,8.76
2022-12-08T22:35:09.628Z,8.81
2022-12-08T22:37:36.315Z,8.75
2022-12-08T22:40:03.186Z,8.59
2022-12-08T22:42:30.228Z,8.34
2022-12-08T22:44:56.804Z,8.41
2022-12-08T22:47:23.445Z,8.64
2022-12-08T22:49:49.987Z,8.74
2022-12-08T22:52:16.684Z,8.74
2022-12-08T22:54:43.268Z,7.69
2022-12-08T22:57:10.267Z,8.96
2022-12-08T22:59:37.622Z,8.73
2022-12-08T23:02:04.175Z,8.75
2022-12-08T23:04:30.933Z,8.86
2022-12-08T23:06:57.787Z,8.79
2022-12-08T23:09:24.372Z,8.31
2022-12-08T23:11:51.037Z,8.89
2022-12-08T23:14:17.805Z,8.15
2022-12-08T23:16:44.893Z,8.82
2022-12-08T23:19:11.546Z,8.65
2022-12-08T23:21:38.316Z,8.69
2022-12-08T23:24:05.315Z,8.67
2022-12-08T23:26:33.692Z,8.67
2022-12-08T23:29:01.199Z,8.24
2022-12-08T23:31:28.468Z,8.56
2022-12-08T23:33:55.599Z,8.54
2022-12-08T23:36:26.267Z,8.54
2022-12-08T23:38:54.259Z,8.57
2022-12-08T23:41:21.361Z,8.65
2022-12-08T23:43:50.233Z,8.66
2022-12-08T23:46:19.729Z,8.57
2022-12-08T23:48:46.566Z,8.61
2022-12-08T23:51:13.675Z,8.55
2022-12-08T23:53:40.661Z,8.49
2022-12-08T23:56:10.590Z,8.26
2022-12-08T23:58:37.568Z,8.70
